Aérodrome :
LOGIN :

S'inscrire | Disclaimer

   EN    FR    IT 

 










Légende :    VFR   VFR Marginal   IFR   IFR Intensif   IFR Très Intensif
Visi : 
Plafond : 
>= 8 km
>= 3000ft
5 à 8 km
1000 à 3000 ft
1500m à 5 km
500 à 1000 ft
800 à 1500m
200 à 500 ft
< 800m
< 200 ft
Symboles :   Orages  Brouillard  Fortes neiges  Fortes précipitations  Vent > 20 kt
SIGMETs :   Divers  Orages  Givrage  Turbulence  Onde Orograph.  Cendres Volcan.






- Altitude de l'aérodrome : 479 ft
- Code IATA : DOL


LFRG - Deauville

DERNIER METAR :
  • 210700Z AUTO 10005KT 060V130 6000 BKN007 01/M00 Q1041 TEMPO 4000 BR BECMG NSC

METARs EXPIRÉS :
  • 210630Z AUTO 10004KT 050V140 7000 BKN007 01/00 Q1041 TEMPO 4000 BR BECMG NSC
  • 210600Z AUTO 11009KT 6000 OVC006 01/01 Q1041 BECMG 4000 BR
  • 210530Z AUTO 11005KT 060V130 5000 BR BKN005 BKN130 02/01 Q1041 NOSIG
  • 210500Z AUTO 05003KT 010V100 6000 FEW006 SCT100 02/01 Q1041
  • 210430Z AUTO 09004KT 6000 NSC 02/01 Q1041

TAF AMD TAF LFRG
Valide du 21 à 06h jusqu'au 21 à 15h UTC


210539Z 2106/2115 VRB04KT 4000 BR BKN006
BECMG 2108/2110 CAVOK
ATIS : +33 2 31 65 65 36



MET'MAP, la Météo Aéronautique d'un coup d'oeil ! - Copyright ORBIFLY Décembre 2007 - Disclaimer

ORBIFLY MET'MAP TEAM :

Programmation & Développement : Alexandra Zaïnal
Sur une idée originale de : Baudouin d'Aumeries
Assistance à la programmation : Marc-Olivier Méhu
Soutien technique & logistique : Manuel Goepfert

Contact : metmap@orbifly.com




SOURCES & CREDITS :

   NOAA